Time;durP1;ratioP1;P1;durP2;ratioP2;P2;SDS_P1;SDS_P2;PMS_P1;PMS_P2;Temp;Humidity;BMP_temperature;BMP_pressure;BME280_temperature;BME280_humidity;BME280_pressure;Samples;Min_cycle;Max_cycle;Signal;HPM_P1;HPM_P2
2023/06/19 05:28:54;;;;;;;6.27;5.77;;;;;;;25.57;67.02;94982.47;5199648;23;20510;-78
2023/06/19 05:31:21;;;;;;;6.50;5.90;;;;;;;25.67;64.77;94990.88;5017661;28;20937;-78
2023/06/19 05:33:47;;;;;;;231.07;156.43;;;;;;;25.94;66.96;94994.13;5014841;28;20478;-77
2023/06/19 05:36:14;;;;;;;196.30;133.50;;;;;;;26.29;68.50;94989.00;5005855;28;20447;-77
2023/06/19 05:38:41;;;;;;;126.90;82.20;;;;;;;26.58;65.36;94994.69;5022121;28;20443;-77
2023/06/19 05:41:09;;;;;;;68.20;48.17;;;;;;;26.80;63.80;95003.91;5000073;28;20439;-77
2023/06/19 05:43:36;;;;;;;25.77;19.70;;;;;;;26.95;65.77;94993.56;5028347;28;20490;-77
2023/06/19 05:46:04;;;;;;;28.73;20.60;;;;;;;26.93;62.05;94994.84;5022457;28;20443;-77
2023/06/19 05:48:31;;;;;;;14.43;8.00;;;;;;;26.86;64.92;94993.06;5036269;28;20457;-78
2023/06/19 05:50:58;;;;;;;14.10;10.20;;;;;;;26.91;65.79;94999.66;5035971;28;20446;-77
2023/06/19 05:53:24;;;;;;;10.00;6.00;;;;;;;26.44;56.26;94992.16;5022355;28;20463;-78
2023/06/19 05:55:51;;;;;;;8.07;7.37;;;;;;;26.00;60.69;94984.34;5028798;28;20531;-76
2023/06/19 05:58:19;;;;;;;14.73;7.10;;;;;;;25.81;60.43;94973.59;5015977;28;20455;-77
2023/06/19 06:00:47;;;;;;;7.80;7.03;;;;;;;25.71;60.53;94981.31;5013460;28;20491;-77
2023/06/19 06:03:15;;;;;;;6.93;5.23;;;;;;;25.41;59.99;94996.44;4988574;28;21351;-78
2023/06/19 06:05:43;;;;;;;9.73;6.77;;;;;;;25.56;62.01;94989.72;5018140;28;20450;-77
2023/06/19 06:08:10;;;;;;;7.00;5.57;;;;;;;25.38;60.03;94991.53;5015467;28;20459;-77
2023/06/19 06:10:36;;;;;;;8.87;6.30;;;;;;;25.50;60.78;94992.47;5025722;28;20491;-76
2023/06/19 06:13:03;;;;;;;6.40;5.80;;;;;;;24.86;61.31;94998.88;5001531;28;20454;-77
2023/06/19 06:15:30;;;;;;;6.70;5.47;;;;;;;25.01;61.99;95004.81;5006806;28;20534;-76
2023/06/19 06:17:57;;;;;;;6.60;6.00;;;;;;;24.82;61.90;94998.47;5015886;28;20455;-77
2023/06/19 06:20:25;;;;;;;8.07;6.13;;;;;;;24.82;63.40;94994.97;5015190;28;20491;-77
2023/06/19 06:22:52;;;;;;;5.97;5.43;;;;;;;25.16;63.41;94993.78;5015448;28;20861;-81
2023/06/19 06:25:19;;;;;;;10.60;5.60;;;;;;;25.39;61.47;94998.53;5015651;28;20817;-81
2023/06/19 06:27:46;;;;;;;6.83;5.93;;;;;;;25.60;60.29;94996.28;5015659;28;20501;-80
2023/06/19 06:30:13;;;;;;;7.80;5.43;;;;;;;25.70;60.01;95001.19;5014822;28;20842;-79
2023/06/19 06:32:40;;;;;;;9.80;5.47;;;;;;;25.86;60.14;94997.94;4997257;28;20447;-80
2023/06/19 06:35:08;;;;;;;8.40;5.43;;;;;;;25.92;59.36;94993.53;4996947;28;20440;-80
2023/06/19 06:37:36;;;;;;;7.47;5.47;;;;;;;26.12;58.81;94990.66;5015648;28;20432;-79
2023/06/19 06:40:05;;;;;;;5.40;4.90;;;;;;;26.19;56.51;94989.53;4980726;28;20879;-80
2023/06/19 06:42:32;;;;;;;5.87;5.37;;;;;;;26.16;57.31;94995.34;5015509;28;20513;-80
2023/06/19 06:44:58;;;;;;;5.60;5.10;;;;;;;25.91;57.70;94992.72;5015182;28;20443;-80
2023/06/19 06:47:25;;;;;;;7.60;5.17;;;;;;;25.97;58.91;94995.56;5015296;28;20443;-80
2023/06/19 06:49:52;;;;;;;5.23;4.73;;;;;;;26.02;58.40;94998.41;5015392;28;20450;-79
2023/06/19 06:52:19;;;;;;;7.50;6.13;;;;;;;26.17;59.64;94991.63;5015255;28;20447;-79
2023/06/19 06:54:47;;;;;;;5.67;5.17;;;;;;;26.32;61.46;94998.50;5014768;28;20806;-80
2023/06/19 06:57:14;;;;;;;6.30;5.70;;;;;;;26.22;59.69;94999.84;5015224;28;20444;-79
2023/06/19 06:59:41;;;;;;;6.57;5.40;;;;;;;26.42;60.46;95001.50;5014823;28;20490;-80
2023/06/19 07:02:07;;;;;;;6.13;5.53;;;;;;;26.57;58.09;95011.88;5014705;28;20878;-80
2023/06/19 07:04:34;;;;;;;7.13;4.93;;;;;;;26.51;57.42;94995.59;5016086;28;20447;-79
2023/06/19 07:07:03;;;;;;;5.90;5.37;;;;;;;26.27;58.28;94996.47;5014553;28;20448;-79
2023/06/19 07:09:34;;;;;;;7.70;6.00;;;;;;;26.28;57.83;94997.28;5014662;28;20431;-80
2023/06/19 07:12:04;;;;;;;5.30;4.80;;;;;;;26.49;58.18;95003.06;5015123;28;20567;-79
2023/06/19 07:14:31;;;;;;;5.77;5.27;;;;;;;26.71;57.93;95003.41;5014272;28;20444;-80
2023/06/19 07:16:57;;;;;;;5.93;5.27;;;;;;;26.54;56.16;95005.91;5014989;28;20443;-79
2023/06/19 07:19:24;;;;;;;5.90;5.13;;;;;;;26.54;56.53;95008.59;5014386;28;20500;-79
2023/06/19 07:21:52;;;;;;;4.70;4.30;;;;;;;26.27;54.56;94999.16;5014637;28;20505;-79
2023/06/19 07:24:19;;;;;;;5.93;5.43;;;;;;;26.41;55.80;95000.69;5015900;28;20455;-79
2023/06/19 07:26:47;;;;;;;5.60;5.20;;;;;;;26.61;56.20;95003.16;5034594;28;20468;-78
2023/06/19 07:29:15;;;;;;;6.83;5.40;;;;;;;26.72;55.32;94998.84;5034760;28;20837;-78
2023/06/19 07:31:42;;;;;;;5.83;5.33;;;;;;;26.87;53.08;95007.34;4983899;28;20830;-79
2023/06/19 07:34:09;;;;;;;5.97;5.47;;;;;;;26.72;53.28;95001.56;5014331;28;20436;-78
2023/06/19 07:36:36;;;;;;;11.80;4.90;;;;;;;26.81;53.67;95002.88;5014506;28;20451;-79
2023/06/19 07:39:03;;;;;;;5.53;5.03;;;;;;;26.67;54.09;94990.66;4996029;28;20452;-79
2023/06/19 07:41:30;;;;;;;6.27;5.50;;;;;;;26.77;53.51;95007.06;5014626;28;20472;-78
2023/06/19 07:43:57;;;;;;;5.83;4.70;;;;;;;26.74;51.41;94999.44;5014927;28;20921;-77
2023/06/19 07:46:25;;;;;;;5.57;5.07;;;;;;;26.64;52.40;95008.09;5014173;28;20436;-78
2023/06/19 07:48:51;;;;;;;9.13;5.33;;;;;;;26.72;53.25;95004.25;5013552;28;20454;-78
2023/06/19 07:51:18;;;;;;;5.97;5.40;;;;;;;26.78;52.48;94997.94;5014099;28;20447;-77
2023/06/19 07:53:45;;;;;;;7.30;5.50;;;;;;;27.03;53.63;95000.53;5013939;28;20443;-78
2023/06/19 07:56:12;;;;;;;7.27;5.40;;;;;;;27.16;50.92;95000.31;5013433;28;20444;-78
2023/06/19 07:58:39;;;;;;;5.00;4.60;;;;;;;27.32;51.02;94993.47;5014138;28;20444;-78
2023/06/19 08:01:05;;;;;;;5.13;4.73;;;;;;;27.34;50.33;94996.75;5014184;28;20494;-78
2023/06/19 08:03:34;;;;;;;5.73;4.10;;;;;;;27.24;51.73;94999.19;5014235;28;20463;-78
2023/06/19 08:06:00;;;;;;;7.10;4.97;;;;;;;27.37;52.78;94990.91;5013544;28;20928;-80
2023/06/19 08:08:27;;;;;;;6.23;5.63;;;;;;;27.30;54.32;94990.19;4994811;28;20452;-79
2023/06/19 08:10:54;;;;;;;5.07;4.57;;;;;;;27.17;52.24;94994.72;5025127;28;20451;-78
2023/06/19 08:13:21;;;;;;;6.60;4.80;;;;;;;27.10;53.20;95002.06;4999638;28;20951;-78
2023/06/19 08:15:49;;;;;;;8.80;5.03;;;;;;;27.02;52.46;94991.63;5013608;28;20446;-78
2023/06/19 08:18:17;;;;;;;5.67;5.10;;;;;;;27.09;53.61;94995.03;4992787;28;20443;-78
2023/06/19 08:20:45;;;;;;;8.13;4.60;;;;;;;27.13;53.49;94990.84;5012322;28;21039;-78
2023/06/19 08:23:12;;;;;;;4.90;4.57;;;;;;;27.13;48.69;94995.41;5012213;28;20811;-78
2023/06/19 08:25:39;;;;;;;6.10;4.77;;;;;;;27.12;49.59;94997.28;5012004;28;20440;-78
2023/06/19 08:28:06;;;;;;;5.23;4.83;;;;;;;27.15;51.29;95004.91;5013710;28;20452;-78
2023/06/19 08:30:33;;;;;;;6.90;6.30;;;;;;;27.19;50.40;94993.69;4995659;28;20479;-77
2023/06/19 08:32:59;;;;;;;8.67;4.87;;;;;;;27.14;49.84;94994.34;5013497;28;20939;-78
2023/06/19 08:35:26;;;;;;;11.60;5.53;;;;;;;27.14;49.21;94991.66;5014331;28;20461;-78
2023/06/19 08:37:55;;;;;;;5.57;4.97;;;;;;;27.33;50.26;94989.72;5012319;28;20455;-79
2023/06/19 08:40:22;;;;;;;6.07;4.97;;;;;;;26.92;49.25;94995.91;5011318;28;20578;-78
2023/06/19 08:42:49;;;;;;;8.20;5.20;;;;;;;26.81;50.04;94995.63;5012066;28;20451;-77
2023/06/19 08:45:18;;;;;;;6.40;4.83;;;;;;;26.96;48.76;95000.59;5011443;28;20535;-78
2023/06/19 08:47:45;;;;;;;7.00;4.90;;;;;;;27.14;50.85;94997.88;5011246;28;20964;-78
2023/06/19 08:50:12;;;;;;;4.37;4.07;;;;;;;27.29;47.62;95000.13;5011808;28;20463;-77
2023/06/19 08:52:38;;;;;;;6.80;5.30;;;;;;;27.39;49.20;94992.31;5011676;28;20443;-79
2023/06/19 08:55:08;;;;;;;6.07;4.70;;;;;;;27.38;49.10;94987.16;5011523;28;20447;-78
2023/06/19 08:57:36;;;;;;;7.10;5.23;;;;;;;27.45;48.96;94987.84;5011796;28;20955;-78
2023/06/19 09:00:05;;;;;;;4.70;4.33;;;;;;;27.28;47.57;94986.91;5012329;28;20475;-78
2023/06/19 09:02:43;;;;;;;4.53;4.20;;;;;;;27.28;47.97;94990.41;5015588;28;20483;-78
2023/06/19 09:05:12;;;;;;;5.60;5.07;;;;;;;27.34;47.69;94996.75;5015160;28;20447;-78
2023/06/19 09:07:39;;;;;;;5.60;4.93;;;;;;;27.27;47.63;94996.84;5015798;28;20509;-80
2023/06/19 09:10:15;;;;;;;4.83;4.43;;;;;;;27.29;48.34;94993.94;5016965;28;20447;-78
2023/06/19 09:12:43;;;;;;;5.03;4.63;;;;;;;27.34;49.15;94985.97;4999409;28;20447;-80
2023/06/19 09:15:13;;;;;;;4.60;4.30;;;;;;;27.31;49.70;94975.66;5016813;28;20470;-80
2023/06/19 09:17:40;;;;;;;5.53;5.13;;;;;;;27.26;46.68;94987.13;5017002;28;20448;-78
2023/06/19 09:20:08;;;;;;;5.90;5.40;;;;;;;27.15;47.30;94983.34;5016618;28;20518;-80
2023/06/19 09:22:35;;;;;;;10.87;4.63;;;;;;;27.21;49.95;94988.88;4998594;28;20954;-81
2023/06/19 09:25:03;;;;;;;6.40;5.03;;;;;;;27.05;48.51;94987.66;5017011;28;20448;-83
2023/06/19 09:27:34;;;;;;;5.17;4.67;;;;;;;27.12;53.57;94994.56;5016804;28;20432;-81
2023/06/19 09:30:02;;;;;;;5.33;4.93;;;;;;;27.14;50.13;94987.09;5016502;28;20790;-78
2023/06/19 09:55:38;;;;;;;5.00;4.43;;;;;;;27.07;45.56;94975.59;5142922;27;20571;-84
2023/06/19 09:58:06;;;;;;;4.60;4.20;;;;;;;26.91;45.62;94964.63;5131095;28;20443;-82
2023/06/19 10:00:34;;;;;;;7.50;4.97;;;;;;;26.86;47.88;94970.69;5114488;28;20449;-81
2023/06/19 10:03:02;;;;;;;5.47;4.97;;;;;;;26.75;44.86;94969.59;5098837;28;20477;-80
2023/06/19 10:05:30;;;;;;;5.23;4.80;;;;;;;26.76;47.24;94965.84;5123232;28;20431;-79
2023/06/19 10:07:59;;;;;;;5.90;5.50;;;;;;;26.80;47.85;94967.03;5123142;28;20444;-80
2023/06/19 10:10:27;;;;;;;4.60;4.20;;;;;;;26.91;47.80;94964.63;5123703;28;20439;-81
2023/06/19 10:12:58;;;;;;;6.10;4.73;;;;;;;26.72;45.37;94955.78;5123975;28;20439;-80
2023/06/19 10:15:26;;;;;;;5.60;5.10;;;;;;;26.79;46.01;94956.50;5131926;28;20441;-79
2023/06/19 10:17:56;;;;;;;5.30;4.90;;;;;;;26.76;44.16;94956.97;5129797;28;20444;-78
2023/06/19 10:20:27;;;;;;;4.40;4.10;;;;;;;26.53;44.78;94941.53;5123387;28;20443;-81
2023/06/19 10:23:06;;;;;;;4.73;4.33;;;;;;;26.58;45.79;94957.00;5115087;28;20446;-81
2023/06/19 10:25:34;;;;;;;10.70;4.77;;;;;;;26.60;45.39;94949.50;5110714;28;20443;-80
2023/06/19 10:28:05;;;;;;;5.47;4.93;;;;;;;26.64;43.69;94953.41;5110994;28;20454;-83
2023/06/19 10:30:34;;;;;;;9.23;4.40;;;;;;;26.64;45.41;94945.34;5110611;28;20467;-80
2023/06/19 10:33:03;;;;;;;4.43;4.13;;;;;;;26.71;43.48;94944.19;5111138;28;20439;-81
2023/06/19 10:35:38;;;;;;;4.63;4.30;;;;;;;26.73;42.45;94935.88;5110406;28;20431;-80
2023/06/19 10:38:05;;;;;;;5.00;4.30;;;;;;;26.87;44.44;94953.47;5111026;28;20439;-81
2023/06/19 10:40:32;;;;;;;6.13;4.17;;;;;;;26.96;40.89;94941.34;5110601;28;20503;-80
2023/06/19 10:42:59;;;;;;;5.47;4.97;;;;;;;27.03;43.21;94931.31;5110747;28;20811;-80
2023/06/19 10:45:28;;;;;;;4.90;4.50;;;;;;;26.84;44.59;94949.38;5110423;28;20446;-80
2023/06/19 10:55:04;;;;;;;5.70;4.37;;;;;;;27.13;44.28;94941.50;5092806;28;20443;-81
2023/06/19 10:57:32;;;;;;;5.13;4.50;;;;;;;27.22;43.21;94940.16;5076398;28;20444;-81
2023/06/19 10:59:59;;;;;;;4.57;4.27;;;;;;;27.27;44.27;94923.28;5076631;28;20795;-82
2023/06/19 11:02:27;;;;;;;5.73;5.20;;;;;;;27.20;44.90;94933.34;5076083;28;20931;-81
2023/06/19 11:04:55;;;;;;;7.30;5.00;;;;;;;27.14;45.64;94925.13;5076526;28;20468;-81
2023/06/19 11:07:23;;;;;;;5.30;4.90;;;;;;;27.24;44.31;94934.53;5075818;28;20955;-79
2023/06/19 11:09:50;;;;;;;5.43;4.93;;;;;;;27.37;44.48;94931.59;5055811;28;20923;-80
2023/06/19 11:12:20;;;;;;;8.03;5.00;;;;;;;27.46;43.92;94924.78;5055978;28;20794;-80
2023/06/19 11:14:49;;;;;;;5.67;5.17;;;;;;;27.35;42.94;94917.53;5056328;28;20505;-80
2023/06/19 11:17:18;;;;;;;5.43;4.93;;;;;;;27.38;44.16;94931.38;5056260;28;20434;-80
2023/06/19 11:19:46;;;;;;;5.87;5.13;;;;;;;27.39;47.08;94933.00;5055811;28;20931;-80
2023/06/19 11:22:37;;;;;;;4.63;4.23;;;;;;;27.49;45.95;94921.66;5055899;28;20437;-79
2023/06/19 11:25:04;;;;;;;5.87;5.37;;;;;;;27.54;44.31;94916.38;5055912;28;20521;-80
2023/06/19 11:27:32;;;;;;;6.10;4.67;;;;;;;27.62;44.83;94923.31;5055558;28;20868;-80
2023/06/19 11:30:00;;;;;;;5.20;4.53;;;;;;;27.39;46.31;94916.00;5055579;28;20434;-81
2023/06/19 11:32:32;;;;;;;4.67;4.30;;;;;;;27.40;46.45;94913.09;5036961;28;20433;-80
2023/06/19 11:35:07;;;;;;;6.87;6.23;;;;;;;27.50;47.61;94917.91;5055430;28;20442;-80
2023/06/19 11:37:35;;;;;;;5.20;4.70;;;;;;;27.55;47.39;94912.63;5035639;28;20579;-80
2023/06/19 11:40:04;;;;;;;6.30;5.83;;;;;;;27.58;47.52;94914.03;5035730;28;20491;-80
2023/06/19 11:42:32;;;;;;;6.73;5.30;;;;;;;27.47;47.35;94913.00;5035894;28;20884;-81
2023/06/19 11:45:06;;;;;;;6.23;5.60;;;;;;;27.29;48.14;94910.38;5035300;28;20556;-80
2023/06/19 11:47:33;;;;;;;6.13;5.53;;;;;;;26.94;48.75;94913.81;5037332;28;20426;-80
2023/06/19 11:50:04;;;;;;;6.33;5.83;;;;;;;26.67;50.83;94907.19;5020192;28;20448;-80
2023/06/19 11:52:31;;;;;;;11.40;5.50;;;;;;;26.78;52.05;94915.28;5055096;28;20445;-81
2023/06/19 11:54:58;;;;;;;8.60;6.30;;;;;;;26.85;51.08;94909.81;5055184;28;20967;-81
2023/06/19 11:57:25;;;;;;;6.90;6.00;;;;;;;26.95;51.20;94901.19;5055425;28;20449;-79
2023/06/19 11:59:52;;;;;;;5.87;5.33;;;;;;;27.06;51.86;94903.09;5054718;28;20456;-80
2023/06/19 12:02:18;;;;;;;6.07;5.60;;;;;;;27.26;52.17;94892.81;5055236;28;20450;-80
2023/06/19 12:04:45;;;;;;;6.33;5.40;;;;;;;27.34;51.82;94897.03;5054738;28;20985;-80
2023/06/19 12:07:15;;;;;;;6.13;5.60;;;;;;;27.28;51.60;94900.66;5054050;28;20445;-81
2023/06/19 12:09:43;;;;;;;6.70;6.03;;;;;;;27.15;50.48;94899.00;5054804;28;20438;-81
2023/06/19 12:12:10;;;;;;;6.83;6.23;;;;;;;26.97;52.17;94891.81;5020238;28;20445;-82
2023/06/19 12:14:37;;;;;;;6.43;5.93;;;;;;;26.82;53.62;94891.41;5054980;28;20426;-79
2023/06/19 12:17:04;;;;;;;6.47;5.87;;;;;;;26.69;52.24;94897.00;5055098;28;20433;-81
2023/06/19 12:19:31;;;;;;;5.80;5.30;;;;;;;26.51;52.69;94890.63;5019605;28;20438;-81
2023/06/19 12:22:01;;;;;;;6.43;5.83;;;;;;;26.45;53.83;94890.72;5054346;28;20900;-81
2023/06/19 12:27:51;;;;;;;6.83;6.07;;;;;;;26.33;55.72;94885.28;5054684;28;20761;-81
2023/06/19 12:30:18;;;;;;;6.20;5.60;;;;;;;26.17;55.03;94875.94;5054707;28;20457;-80
2023/06/19 12:32:49;;;;;;;7.73;6.13;;;;;;;26.09;54.93;94888.91;5054411;28;20445;-80
2023/06/19 12:35:16;;;;;;;6.00;5.50;;;;;;;26.01;56.63;94883.78;5054326;28;20450;-82
2023/06/19 12:37:43;;;;;;;7.47;6.70;;;;;;;26.01;54.05;94883.78;5054141;28;20469;-81
2023/06/19 12:40:11;;;;;;;10.40;5.50;;;;;;;26.05;55.29;94885.03;5035828;28;20438;-80
2023/06/19 12:42:38;;;;;;;7.17;5.70;;;;;;;25.96;55.34;94886.34;5054616;28;20434;-81
2023/06/19 12:45:07;;;;;;;6.40;5.87;;;;;;;25.92;55.83;94881.44;5054457;28;20517;-82
2023/06/19 12:47:34;;;;;;;6.43;5.82;;;;;;;26.00;55.93;94876.78;5019134;28;20431;-81
2023/06/19 12:50:01;;;;;;;6.67;6.07;;;;;;;26.07;56.71;94877.53;5054250;28;20658;-83
2023/06/19 12:52:28;;;;;;;6.70;5.47;;;;;;;26.08;56.82;94876.50;5054664;28;20445;-79
2023/06/19 12:55:38;;;;;;;7.13;6.47;;;;;;;26.01;55.47;94881.94;5054364;28;20460;-80
2023/06/19 12:58:05;;;;;;;6.37;5.77;;;;;;;26.01;56.83;94873.88;5054598;28;20426;-81
2023/06/19 13:00:34;;;;;;;6.70;5.50;;;;;;;26.13;53.94;94877.44;5070133;28;20448;-81
2023/06/19 13:03:01;;;;;;;6.77;6.20;;;;;;;26.25;55.36;94864.03;5074077;28;20424;-82
2023/06/19 13:05:27;;;;;;;7.03;6.20;;;;;;;26.38;54.31;94876.53;5074111;28;20481;-79
2023/06/19 13:07:54;;;;;;;8.53;5.27;;;;;;;26.45;53.77;94870.00;5073919;28;20437;-81
2023/06/19 13:10:21;;;;;;;5.77;5.27;;;;;;;26.47;53.74;94873.28;5073760;28;20828;-81
2023/06/19 13:12:48;;;;;;;6.17;5.67;;;;;;;26.44;52.66;94857.59;5073662;28;20444;-82
2023/06/19 13:15:24;;;;;;;5.80;5.40;;;;;;;26.47;53.59;94867.09;5074006;28;20811;-81
2023/06/19 13:17:52;;;;;;;5.80;5.30;;;;;;;26.36;52.67;94870.56;5073851;28;20432;-82
2023/06/19 13:20:19;;;;;;;5.47;4.97;;;;;;;26.33;53.58;94855.66;5077354;28;20485;-80
2023/06/19 13:22:46;;;;;;;6.20;5.60;;;;;;;26.44;54.57;94873.75;5078166;28;20970;-80
2023/06/19 13:25:13;;;;;;;5.70;5.20;;;;;;;26.52;53.62;94867.22;5074128;28;20534;-80
2023/06/19 13:27:40;;;;;;;8.17;5.23;;;;;;;26.42;51.96;94870.47;5073682;28;20452;-80
2023/06/19 13:30:08;;;;;;;6.50;5.50;;;;;;;26.45;50.85;94870.00;5073478;28;20432;-80
2023/06/19 13:32:35;;;;;;;6.50;5.20;;;;;;;26.50;50.79;94872.00;5073553;28;20444;-81
2023/06/19 13:35:03;;;;;;;7.43;5.63;;;;;;;26.64;52.11;94875.34;5073552;28;20433;-80
2023/06/19 13:37:30;;;;;;;5.63;5.07;;;;;;;26.65;50.17;94877.00;5055116;28;20848;-80
2023/06/19 13:39:57;;;;;;;5.03;4.53;;;;;;;26.59;50.54;94872.50;5073519;28;20441;-80
2023/06/19 13:42:24;;;;;;;6.57;5.30;;;;;;;26.53;49.14;94867.00;5073613;28;20918;-80
2023/06/19 13:44:51;;;;;;;6.93;5.50;;;;;;;26.59;49.69;94864.41;5073037;28;20974;-80
2023/06/19 13:47:19;;;;;;;4.90;4.50;;;;;;;26.54;50.44;94852.47;5073381;28;20425;-80
2023/06/19 13:49:45;;;;;;;6.40;5.20;;;;;;;26.55;49.50;94862.19;5054989;28;20445;-81
2023/06/19 13:52:14;;;;;;;4.93;4.53;;;;;;;26.63;50.38;94868.31;5073456;28;20437;-80
2023/06/19 13:54:40;;;;;;;6.30;5.70;;;;;;;26.72;50.49;94869.63;5074085;28;20471;-80
2023/06/19 13:57:08;;;;;;;6.93;5.97;;;;;;;26.75;48.94;94864.59;5101290;28;20486;-81
2023/06/19 13:59:34;;;;;;;6.57;5.93;;;;;;;26.85;48.97;94858.63;5070517;28;20448;-81
2023/06/19 14:02:01;;;;;;;5.67;5.17;;;;;;;26.96;49.78;94863.25;5093747;28;20432;-80
2023/06/19 14:04:28;;;;;;;6.37;5.37;;;;;;;27.00;49.22;94860.94;5093155;28;20486;-81
2023/06/19 14:06:55;;;;;;;9.90;5.27;;;;;;;26.95;47.30;94866.97;5093357;28;20435;-80
2023/06/19 14:09:23;;;;;;;6.40;4.77;;;;;;;26.88;48.17;94855.47;5041488;28;20532;-81
2023/06/19 14:11:50;;;;;;;5.70;5.20;;;;;;;26.66;47.44;94849.00;5093933;28;20432;-81
2023/06/19 14:14:17;;;;;;;6.60;5.80;;;;;;;26.69;47.22;94862.00;5093159;28;20436;-81
2023/06/19 14:26:50;;;;;;;7.20;5.03;;;;;;;26.85;47.05;94853.25;5073647;28;20509;-80
2023/06/19 14:29:18;;;;;;;5.20;4.80;;;;;;;26.93;47.80;94846.72;5081287;28;20512;-80
2023/06/19 14:31:45;;;;;;;6.17;5.60;;;;;;;26.97;47.47;94850.59;5078667;28;21054;-81
2023/06/19 14:34:12;;;;;;;4.80;4.40;;;;;;;26.91;46.70;94840.75;5077053;28;20445;-82
2023/06/19 14:36:39;;;;;;;8.73;5.13;;;;;;;26.91;48.33;94846.13;5021529;28;20920;-81
2023/06/19 14:39:06;;;;;;;7.13;4.97;;;;;;;26.96;48.45;94849.78;5057112;28;20779;-80
2023/06/19 14:41:33;;;;;;;5.80;5.30;;;;;;;26.81;47.28;94835.91;5056483;28;20453;-81
2023/06/19 14:44:01;;;;;;;7.33;6.10;;;;;;;26.88;47.72;94847.41;5056436;28;20976;-80
2023/06/19 14:46:28;;;;;;;6.03;4.93;;;;;;;26.81;47.41;94835.91;5056157;28;20476;-81
2023/06/19 14:48:54;;;;;;;10.30;5.40;;;;;;;26.86;47.01;94844.13;5056719;28;20441;-81
2023/06/19 14:51:21;;;;;;;5.53;5.03;;;;;;;26.89;46.89;94841.00;5056643;28;20438;-81
2023/06/19 14:53:48;;;;;;;7.87;5.23;;;;;;;26.85;48.04;94834.41;5056983;28;20450;-81
2023/06/19 14:56:15;;;;;;;5.70;5.20;;;;;;;26.72;47.59;94831.94;5056487;28;20469;-81
2023/06/19 14:58:42;;;;;;;6.00;5.50;;;;;;;26.64;47.87;94833.09;5056225;28;20429;-79
2023/06/19 15:01:11;;;;;;;7.07;5.30;;;;;;;26.65;48.55;94837.44;5055880;28;20437;-81
2023/06/19 15:03:37;;;;;;;6.10;5.60;;;;;;;26.60;49.43;94836.44;5055954;28;20452;-81
2023/06/19 15:06:05;;;;;;;7.83;5.90;;;;;;;26.61;49.58;94843.50;5056296;28;20477;-81
2023/06/19 15:08:31;;;;;;;5.53;5.03;;;;;;;26.53;48.37;94837.38;5056383;28;20452;-80
2023/06/19 15:10:58;;;;;;;9.00;4.90;;;;;;;26.52;49.74;94822.28;5056641;28;20430;-81
2023/06/19 15:13:25;;;;;;;7.33;5.37;;;;;;;26.63;48.91;94830.63;5056014;28;20446;-80
2023/06/19 15:15:52;;;;;;;8.33;5.73;;;;;;;26.71;49.69;94835.69;5055781;28;20975;-81
2023/06/19 15:18:20;;;;;;;8.77;5.07;;;;;;;26.66;48.49;94833.69;5020998;28;20449;-80
2023/06/19 15:20:47;;;;;;;8.50;5.53;;;;;;;26.70;48.04;94834.84;5056077;28;20458;-81
2023/06/19 15:23:14;;;;;;;6.23;5.60;;;;;;;26.72;47.68;94831.94;5055674;28;21352;-80
2023/06/19 15:25:40;;;;;;;5.40;5.00;;;;;;;26.68;48.81;94841.53;5055565;28;20466;-81
2023/06/19 15:28:09;;;;;;;8.10;5.27;;;;;;;26.67;49.07;94839.88;5055508;28;20927;-81
2023/06/19 15:30:36;;;;;;;5.83;5.23;;;;;;;26.67;48.64;94835.31;5055570;28;20806;-81
2023/06/19 15:33:03;;;;;;;5.97;5.47;;;;;;;26.75;48.89;94824.22;5055500;28;20460;-81
2023/06/19 15:35:31;;;;;;;5.33;4.90;;;;;;;26.77;48.99;94829.34;5055595;28;20500;-81
2023/06/19 15:37:59;;;;;;;6.70;5.43;;;;;;;26.90;47.34;94837.25;5055087;28;20446;-81
2023/06/19 15:40:27;;;;;;;8.70;4.83;;;;;;;26.96;49.70;94839.00;5055273;28;20438;-81
2023/06/19 15:42:54;;;;;;;7.23;5.00;;;;;;;27.00;49.03;94834.81;5055274;28;20939;-81
2023/06/19 15:45:20;;;;;;;5.77;5.27;;;;;;;26.98;48.24;94828.81;5055180;28;20492;-82
2023/06/19 15:47:47;;;;;;;7.73;5.47;;;;;;;27.06;48.38;94833.06;5055432;28;20940;-81
2023/06/19 15:50:14;;;;;;;11.03;5.70;;;;;;;27.07;48.84;94832.81;5055400;28;20438;-80
2023/06/19 15:52:42;;;;;;;6.83;5.60;;;;;;;27.01;48.46;94825.69;5020653;28;20829;-81
2023/06/19 15:55:09;;;;;;;7.20;6.50;;;;;;;26.92;50.13;94831.63;5055179;28;20970;-82
2023/06/19 15:57:36;;;;;;;6.30;5.70;;;;;;;26.84;51.43;94827.38;5056273;28;20470;-82
2023/06/19 16:00:04;;;;;;;8.23;5.73;;;;;;;26.76;51.34;94830.41;5055173;28;20445;-79
2023/06/19 16:02:31;;;;;;;8.00;6.00;;;;;;;26.71;51.43;94828.41;5055543;28;20920;-79
2023/06/19 16:04:58;;;;;;;6.90;6.27;;;;;;;26.63;51.79;94822.56;5055021;28;20496;-80
2023/06/19 16:07:25;;;;;;;7.03;5.40;;;;;;;26.61;52.50;94830.88;5055471;28;20462;-81
2023/06/19 16:09:53;;;;;;;6.87;6.27;;;;;;;26.59;52.25;94829.44;5056046;28;20803;-80
2023/06/19 16:12:20;;;;;;;8.10;5.73;;;;;;;26.61;53.87;94832.75;5054751;28;20813;-81
2023/06/19 16:14:47;;;;;;;6.87;6.27;;;;;;;26.51;52.97;94828.72;5055125;28;20442;-81
2023/06/19 16:17:14;;;;;;;7.13;5.50;;;;;;;26.46;52.25;94839.34;5054857;28;20962;-80
2023/06/19 16:19:41;;;;;;;6.37;5.60;;;;;;;26.29;53.12;94832.94;5055003;28;20446;-81
2023/06/19 16:22:07;;;;;;;11.20;7.57;;;;;;;26.17;54.38;94842.84;5055480;28;20978;-81
2023/06/19 16:24:34;;;;;;;7.13;5.70;;;;;;;26.11;54.65;94843.75;5054586;28;20468;-79
2023/06/19 16:27:02;;;;;;;7.10;6.50;;;;;;;25.98;55.37;94849.28;5055149;28;20843;-79
2023/06/19 16:29:29;;;;;;;7.77;7.10;;;;;;;25.90;55.43;94845.88;5055004;28;20479;-82
2023/06/19 16:31:56;;;;;;;7.33;6.63;;;;;;;25.81;55.44;94846.41;5054667;28;20437;-81
2023/06/19 16:34:23;;;;;;;7.50;6.80;;;;;;;25.78;56.92;94836.94;5054842;28;20429;-80
2023/06/19 16:36:50;;;;;;;7.93;6.70;;;;;;;25.76;55.32;94844.41;5054798;28;20809;-81
2023/06/19 16:39:17;;;;;;;11.33;7.00;;;;;;;25.71;55.19;94843.41;5019587;28;20449;-81
2023/06/19 16:41:45;;;;;;;7.17;6.20;;;;;;;25.64;55.04;94841.59;5054557;28;20438;-83
2023/06/19 16:44:13;;;;;;;7.03;5.87;;;;;;;25.53;55.85;94844.22;5054662;28;20448;-80
2023/06/19 16:46:40;;;;;;;6.00;5.50;;;;;;;25.38;54.59;94844.56;5057937;28;20481;-79
2023/06/19 16:49:07;;;;;;;6.97;5.50;;;;;;;25.24;55.15;94846.59;5074361;28;20444;-83
2023/06/19 16:51:33;;;;;;;6.97;6.07;;;;;;;25.20;56.34;94845.38;5050083;28;20445;-79
2023/06/19 16:54:00;;;;;;;10.40;6.80;;;;;;;25.11;54.79;94840.50;5054418;28;20457;-79
2023/06/19 16:56:27;;;;;;;7.70;5.50;;;;;;;25.01;53.81;94847.22;5054433;28;20474;-81
2023/06/19 16:58:54;;;;;;;5.73;5.10;;;;;;;24.99;53.58;94845.78;5054212;28;20917;-79
2023/06/19 17:01:22;;;;;;;6.60;5.10;;;;;;;24.98;53.37;94849.47;5070913;28;20445;-81
2023/06/19 17:03:49;;;;;;;8.00;5.70;;;;;;;24.97;53.17;94854.03;5075252;28;20441;-80
2023/06/19 17:06:17;;;;;;;6.33;5.70;;;;;;;24.98;53.85;94854.84;5071352;28;20486;-80
2023/06/19 17:08:44;;;;;;;8.23;5.70;;;;;;;25.01;56.80;94865.19;5064614;28;20801;-80
2023/06/19 17:11:11;;;;;;;6.37;5.63;;;;;;;24.99;54.74;94853.84;5073910;28;20445;-80
2023/06/19 17:13:38;;;;;;;5.70;5.30;;;;;;;25.03;56.27;94871.16;5075018;28;20433;-80
2023/06/19 17:16:05;;;;;;;7.40;6.70;;;;;;;25.00;55.79;94871.59;5074112;28;20437;-79
2023/06/19 17:18:33;;;;;;;6.13;5.50;;;;;;;25.01;56.49;94860.63;5078329;28;20451;-79
2023/06/19 17:21:01;;;;;;;8.00;6.97;;;;;;;24.99;55.77;94870.78;5082795;28;20452;-80
2023/06/19 17:23:27;;;;;;;7.37;6.57;;;;;;;25.01;56.75;94878.59;5073890;28;20498;-81
2023/06/19 17:25:55;;;;;;;6.80;6.20;;;;;;;25.00;56.27;94876.97;5074036;28;20468;-80
2023/06/19 17:28:21;;;;;;;6.80;6.13;;;;;;;24.98;57.22;94885.25;5074087;28;20451;-79
2023/06/19 17:30:48;;;;;;;6.83;5.93;;;;;;;24.96;57.55;94879.22;5073332;28;20960;-80
2023/06/19 17:33:15;;;;;;;9.63;6.37;;;;;;;24.94;58.07;94883.19;5073927;28;20432;-81
2023/06/19 17:35:43;;;;;;;6.93;6.23;;;;;;;24.86;58.47;94875.38;5055188;28;20454;-79
2023/06/19 17:38:10;;;;;;;7.60;6.90;;;;;;;24.80;59.04;94881.63;5073486;28;20444;-79
2023/06/19 17:40:37;;;;;;;6.73;6.00;;;;;;;24.78;59.33;94881.03;5039043;28;20456;-79
2023/06/19 17:43:04;;;;;;;9.43;6.40;;;;;;;24.73;60.09;94887.03;5073918;28;20448;-80
2023/06/19 17:45:31;;;;;;;8.00;6.77;;;;;;;24.70;59.18;94891.00;5038188;28;20475;-81